sensor_id;sensor_type;location;lat;lon;timestamp;temperature;humidity
44579;DHT22;37422;51.402;0.016;2022-10-16T00:26:51;12.70;99.90
44579;DHT22;37422;51.402;0.016;2022-10-16T00:46:04;12.80;99.90
44579;DHT22;37422;51.402;0.016;2022-10-16T00:53:13;12.70;99.90
44579;DHT22;37422;51.402;0.016;2022-10-16T00:55:41;12.60;99.90
44579;DHT22;37422;51.402;0.016;2022-10-16T00:58:10;12.70;99.90
44579;DHT22;37422;51.402;0.016;2022-10-16T01:00:38;12.60;99.90
44579;DHT22;37422;51.402;0.016;2022-10-16T01:03:32;12.70;99.90
44579;DHT22;37422;51.402;0.016;2022-10-16T01:06:23;12.70;99.90
44579;DHT22;37422;51.402;0.016;2022-10-16T01:09:25;12.70;99.90
44579;DHT22;37422;51.402;0.016;2022-10-16T01:17:38;12.60;99.90
44579;DHT22;37422;51.402;0.016;2022-10-16T01:20:26;12.60;99.90
44579;DHT22;37422;51.402;0.016;2022-10-16T01:23:14;12.60;99.90
44579;DHT22;37422;51.402;0.016;2022-10-16T01:28:51;12.60;99.90
44579;DHT22;37422;51.402;0.016;2022-10-16T01:31:24;12.60;99.90
44579;DHT22;37422;51.402;0.016;2022-10-16T01:34:05;12.60;99.90
44579;DHT22;37422;51.402;0.016;2022-10-16T01:36:45;12.50;99.90
44579;DHT22;37422;51.402;0.016;2022-10-16T01:39:15;12.60;99.90
44579;DHT22;37422;51.402;0.016;2022-10-16T01:41:55;12.50;99.90
44579;DHT22;37422;51.402;0.016;2022-10-16T01:44:29;12.50;99.90
44579;DHT22;37422;51.402;0.016;2022-10-16T01:46:59;12.50;99.90
44579;DHT22;37422;51.402;0.016;2022-10-16T01:49:31;12.50;99.90
44579;DHT22;37422;51.402;0.016;2022-10-16T01:52:02;12.50;99.90
44579;DHT22;37422;51.402;0.016;2022-10-16T01:54:34;12.50;99.90
44579;DHT22;37422;51.402;0.016;2022-10-16T01:57:03;12.60;99.90
44579;DHT22;37422;51.402;0.016;2022-10-16T01:59:42;12.60;99.90
44579;DHT22;37422;51.402;0.016;2022-10-16T02:02:11;12.70;99.90
44579;DHT22;37422;51.402;0.016;2022-10-16T02:04:44;12.80;99.90
44579;DHT22;37422;51.402;0.016;2022-10-16T02:07:13;12.90;99.90
44579;DHT22;37422;51.402;0.016;2022-10-16T02:09:42;12.90;99.90
44579;DHT22;37422;51.402;0.016;2022-10-16T02:12:19;12.90;99.90
44579;DHT22;37422;51.402;0.016;2022-10-16T02:14:50;13.00;99.90
44579;DHT22;37422;51.402;0.016;2022-10-16T02:17:18;13.10;99.90
44579;DHT22;37422;51.402;0.016;2022-10-16T02:19:51;13.10;99.90
44579;DHT22;37422;51.402;0.016;2022-10-16T02:25:35;13.10;99.90
44579;DHT22;37422;51.402;0.016;2022-10-16T02:28:16;13.10;99.90
44579;DHT22;37422;51.402;0.016;2022-10-16T02:33:29;13.00;99.90
44579;DHT22;37422;51.402;0.016;2022-10-16T02:35:58;12.90;99.90
44579;DHT22;37422;51.402;0.016;2022-10-16T02:38:30;12.80;99.90
44579;DHT22;37422;51.402;0.016;2022-10-16T02:40:58;12.70;99.90
44579;DHT22;37422;51.402;0.016;2022-10-16T02:43:26;12.60;99.90
44579;DHT22;37422;51.402;0.016;2022-10-16T02:45:54;12.50;99.90
44579;DHT22;37422;51.402;0.016;2022-10-16T02:48:22;12.50;99.90
44579;DHT22;37422;51.402;0.016;2022-10-16T02:50:49;12.40;99.90
44579;DHT22;37422;51.402;0.016;2022-10-16T02:53:18;12.30;99.90
44579;DHT22;37422;51.402;0.016;2022-10-16T02:55:47;12.30;99.90
44579;DHT22;37422;51.402;0.016;2022-10-16T02:58:15;12.30;99.90
44579;DHT22;37422;51.402;0.016;2022-10-16T03:00:43;12.30;99.90
44579;DHT22;37422;51.402;0.016;2022-10-16T03:03:11;12.20;99.90
44579;DHT22;37422;51.402;0.016;2022-10-16T03:05:39;12.20;99.90
44579;DHT22;37422;51.402;0.016;2022-10-16T03:08:06;12.10;99.90
44579;DHT22;37422;51.402;0.016;2022-10-16T03:10:34;12.10;99.90
44579;DHT22;37422;51.402;0.016;2022-10-16T03:13:02;12.00;99.90
44579;DHT22;37422;51.402;0.016;2022-10-16T03:15:30;12.00;99.90
44579;DHT22;37422;51.402;0.016;2022-10-16T03:17:58;12.00;99.90
44579;DHT22;37422;51.402;0.016;2022-10-16T03:20:26;12.00;99.90
44579;DHT22;37422;51.402;0.016;2022-10-16T03:22:54;11.90;99.90
44579;DHT22;37422;51.402;0.016;2022-10-16T03:25:22;11.90;99.90
44579;DHT22;37422;51.402;0.016;2022-10-16T03:27:50;11.90;99.90
44579;DHT22;37422;51.402;0.016;2022-10-16T03:30:18;11.80;99.90
44579;DHT22;37422;51.402;0.016;2022-10-16T03:32:46;11.80;99.90
44579;DHT22;37422;51.402;0.016;2022-10-16T03:35:14;11.80;99.90
44579;DHT22;37422;51.402;0.016;2022-10-16T03:37:42;11.80;99.90
44579;DHT22;37422;51.402;0.016;2022-10-16T03:40:10;11.80;99.90
44579;DHT22;37422;51.402;0.016;2022-10-16T03:42:38;11.80;99.90
44579;DHT22;37422;51.402;0.016;2022-10-16T03:45:06;11.80;99.90
44579;DHT22;37422;51.402;0.016;2022-10-16T03:47:36;11.80;99.90
44579;DHT22;37422;51.402;0.016;2022-10-16T03:50:04;11.80;99.90
44579;DHT22;37422;51.402;0.016;2022-10-16T03:52:32;11.80;99.90
44579;DHT22;37422;51.402;0.016;2022-10-16T03:55:00;11.80;99.90
44579;DHT22;37422;51.402;0.016;2022-10-16T03:58:01;11.80;99.90
44579;DHT22;37422;51.402;0.016;2022-10-16T04:00:43;11.80;99.90
44579;DHT22;37422;51.402;0.016;2022-10-16T04:03:11;11.80;99.90
44579;DHT22;37422;51.402;0.016;2022-10-16T04:05:39;11.80;99.90
44579;DHT22;37422;51.402;0.016;2022-10-16T04:08:07;11.80;99.90
44579;DHT22;37422;51.402;0.016;2022-10-16T04:10:35;11.80;99.90
44579;DHT22;37422;51.402;0.016;2022-10-16T04:13:03;11.80;99.90
44579;DHT22;37422;51.402;0.016;2022-10-16T04:15:30;11.80;99.90
44579;DHT22;37422;51.402;0.016;2022-10-16T04:17:58;11.80;99.90
44579;DHT22;37422;51.402;0.016;2022-10-16T04:20:26;11.90;99.90
44579;DHT22;37422;51.402;0.016;2022-10-16T04:22:54;11.90;99.90
44579;DHT22;37422;51.402;0.016;2022-10-16T04:25:22;11.90;99.90
44579;DHT22;37422;51.402;0.016;2022-10-16T04:27:53;11.90;99.90
44579;DHT22;37422;51.402;0.016;2022-10-16T04:30:27;11.90;99.90
44579;DHT22;37422;51.402;0.016;2022-10-16T04:32:55;11.90;99.90
44579;DHT22;37422;51.402;0.016;2022-10-16T04:35:24;11.90;99.90
44579;DHT22;37422;51.402;0.016;2022-10-16T04:37:52;11.80;99.90
44579;DHT22;37422;51.402;0.016;2022-10-16T04:40:19;11.80;99.90
44579;DHT22;37422;51.402;0.016;2022-10-16T04:42:47;11.90;99.90
44579;DHT22;37422;51.402;0.016;2022-10-16T04:45:17;11.80;99.90
44579;DHT22;37422;51.402;0.016;2022-10-16T04:47:45;11.80;99.90
44579;DHT22;37422;51.402;0.016;2022-10-16T04:50:14;11.80;99.90
44579;DHT22;37422;51.402;0.016;2022-10-16T04:53:01;11.80;99.90
44579;DHT22;37422;51.402;0.016;2022-10-16T04:55:28;11.80;99.90
44579;DHT22;37422;51.402;0.016;2022-10-16T04:57:56;11.80;99.90
44579;DHT22;37422;51.402;0.016;2022-10-16T05:00:24;11.70;99.90
44579;DHT22;37422;51.402;0.016;2022-10-16T05:02:52;11.70;99.90
44579;DHT22;37422;51.402;0.016;2022-10-16T05:05:23;11.60;99.90
44579;DHT22;37422;51.402;0.016;2022-10-16T05:07:51;11.60;99.90
44579;DHT22;37422;51.402;0.016;2022-10-16T05:10:19;11.60;99.90
44579;DHT22;37422;51.402;0.016;2022-10-16T05:12:50;11.60;99.90
44579;DHT22;37422;51.402;0.016;2022-10-16T05:15:19;11.60;99.90
44579;DHT22;37422;51.402;0.016;2022-10-16T05:17:47;11.60;99.90
44579;DHT22;37422;51.402;0.016;2022-10-16T05:20:15;11.60;99.90
44579;DHT22;37422;51.402;0.016;2022-10-16T05:22:42;11.60;99.90
44579;DHT22;37422;51.402;0.016;2022-10-16T05:25:10;11.60;99.90
44579;DHT22;37422;51.402;0.016;2022-10-16T05:27:38;11.60;99.90
44579;DHT22;37422;51.402;0.016;2022-10-16T05:30:07;11.60;99.90
44579;DHT22;37422;51.402;0.016;2022-10-16T05:32:39;11.50;99.90
44579;DHT22;37422;51.402;0.016;2022-10-16T05:35:14;11.60;99.90
44579;DHT22;37422;51.402;0.016;2022-10-16T05:37:46;11.50;99.90
44579;DHT22;37422;51.402;0.016;2022-10-16T05:40:15;11.50;99.90
44579;DHT22;37422;51.402;0.016;2022-10-16T05:42:46;11.50;99.90
44579;DHT22;37422;51.402;0.016;2022-10-16T05:45:15;11.50;99.90
44579;DHT22;37422;51.402;0.016;2022-10-16T05:47:43;11.50;99.90
44579;DHT22;37422;51.402;0.016;2022-10-16T05:50:10;11.50;99.90
44579;DHT22;37422;51.402;0.016;2022-10-16T05:52:38;11.50;99.90
44579;DHT22;37422;51.402;0.016;2022-10-16T05:55:06;11.50;99.90
44579;DHT22;37422;51.402;0.016;2022-10-16T05:57:37;11.40;99.90
44579;DHT22;37422;51.402;0.016;2022-10-16T06:00:06;11.40;99.90
44579;DHT22;37422;51.402;0.016;2022-10-16T06:02:39;11.40;99.90
44579;DHT22;37422;51.402;0.016;2022-10-16T06:05:09;11.30;99.90
44579;DHT22;37422;51.402;0.016;2022-10-16T06:07:37;11.30;99.90
44579;DHT22;37422;51.402;0.016;2022-10-16T06:10:05;11.20;99.90
44579;DHT22;37422;51.402;0.016;2022-10-16T06:12:34;11.10;99.90
44579;DHT22;37422;51.402;0.016;2022-10-16T06:15:03;11.10;99.90
44579;DHT22;37422;51.402;0.016;2022-10-16T06:17:31;11.00;99.90
44579;DHT22;37422;51.402;0.016;2022-10-16T06:20:05;11.00;99.90
44579;DHT22;37422;51.402;0.016;2022-10-16T06:22:33;11.00;99.90
44579;DHT22;37422;51.402;0.016;2022-10-16T06:25:02;11.00;99.90
44579;DHT22;37422;51.402;0.016;2022-10-16T06:27:30;11.00;99.90
44579;DHT22;37422;51.402;0.016;2022-10-16T06:29:57;11.00;99.90
44579;DHT22;37422;51.402;0.016;2022-10-16T06:32:27;11.00;99.90
44579;DHT22;37422;51.402;0.016;2022-10-16T06:34:55;11.00;99.90
44579;DHT22;37422;51.402;0.016;2022-10-16T06:37:22;11.00;99.90
44579;DHT22;37422;51.402;0.016;2022-10-16T06:39:55;11.00;99.90
44579;DHT22;37422;51.402;0.016;2022-10-16T06:42:23;11.00;99.90
44579;DHT22;37422;51.402;0.016;2022-10-16T06:44:51;10.90;99.90
44579;DHT22;37422;51.402;0.016;2022-10-16T06:47:19;10.90;99.90
44579;DHT22;37422;51.402;0.016;2022-10-16T06:49:46;10.90;99.90
44579;DHT22;37422;51.402;0.016;2022-10-16T06:52:20;10.90;99.90
44579;DHT22;37422;51.402;0.016;2022-10-16T06:54:49;10.90;99.90
44579;DHT22;37422;51.402;0.016;2022-10-16T06:57:17;11.00;99.90
44579;DHT22;37422;51.402;0.016;2022-10-16T06:59:45;11.00;99.90
44579;DHT22;37422;51.402;0.016;2022-10-16T07:02:13;11.00;99.90
44579;DHT22;37422;51.402;0.016;2022-10-16T07:04:41;11.00;99.90
44579;DHT22;37422;51.402;0.016;2022-10-16T07:07:09;11.10;99.90
44579;DHT22;37422;51.402;0.016;2022-10-16T07:09:36;11.20;99.90
44579;DHT22;37422;51.402;0.016;2022-10-16T07:12:04;11.20;99.90
44579;DHT22;37422;51.402;0.016;2022-10-16T07:14:32;11.30;99.90
44579;DHT22;37422;51.402;0.016;2022-10-16T07:17:00;11.40;99.90
44579;DHT22;37422;51.402;0.016;2022-10-16T07:19:28;11.40;99.90
44579;DHT22;37422;51.402;0.016;2022-10-16T07:22:04;11.50;99.90
44579;DHT22;37422;51.402;0.016;2022-10-16T07:24:38;11.50;99.90
44579;DHT22;37422;51.402;0.016;2022-10-16T07:27:09;11.60;99.90
44579;DHT22;37422;51.402;0.016;2022-10-16T07:29:37;11.70;99.90
44579;DHT22;37422;51.402;0.016;2022-10-16T07:32:09;11.80;99.90
44579;DHT22;37422;51.402;0.016;2022-10-16T07:34:37;11.90;99.90
44579;DHT22;37422;51.402;0.016;2022-10-16T07:37:04;12.10;99.90
44579;DHT22;37422;51.402;0.016;2022-10-16T07:39:32;12.30;99.90
44579;DHT22;37422;51.402;0.016;2022-10-16T07:42:03;12.70;99.90
44579;DHT22;37422;51.402;0.016;2022-10-16T07:44:30;13.10;99.90
44579;DHT22;37422;51.402;0.016;2022-10-16T07:47:01;13.60;99.90
44579;DHT22;37422;51.402;0.016;2022-10-16T07:49:30;14.00;99.90
44579;DHT22;37422;51.402;0.016;2022-10-16T07:51:57;14.40;99.90
44579;DHT22;37422;51.402;0.016;2022-10-16T07:54:25;14.70;99.90
44579;DHT22;37422;51.402;0.016;2022-10-16T07:56:53;15.00;99.90
44579;DHT22;37422;51.402;0.016;2022-10-16T07:59:21;15.20;99.90
44579;DHT22;37422;51.402;0.016;2022-10-16T08:01:49;15.30;99.90
44579;DHT22;37422;51.402;0.016;2022-10-16T08:04:20;15.50;99.90
44579;DHT22;37422;51.402;0.016;2022-10-16T08:06:50;15.60;99.90
44579;DHT22;37422;51.402;0.016;2022-10-16T08:09:18;15.70;99.90
44579;DHT22;37422;51.402;0.016;2022-10-16T08:11:46;15.70;99.90
44579;DHT22;37422;51.402;0.016;2022-10-16T08:14:14;15.60;99.90
44579;DHT22;37422;51.402;0.016;2022-10-16T08:16:43;15.60;99.90
44579;DHT22;37422;51.402;0.016;2022-10-16T08:19:11;15.50;99.90
44579;DHT22;37422;51.402;0.016;2022-10-16T08:21:39;15.50;99.90
44579;DHT22;37422;51.402;0.016;2022-10-16T08:24:06;15.40;99.90
44579;DHT22;37422;51.402;0.016;2022-10-16T08:26:34;15.30;99.90
44579;DHT22;37422;51.402;0.016;2022-10-16T08:29:13;15.30;99.90
44579;DHT22;37422;51.402;0.016;2022-10-16T08:31:41;15.20;99.90
44579;DHT22;37422;51.402;0.016;2022-10-16T08:34:09;15.10;99.90
44579;DHT22;37422;51.402;0.016;2022-10-16T08:36:37;15.00;99.90
44579;DHT22;37422;51.402;0.016;2022-10-16T08:39:07;14.80;99.90
44579;DHT22;37422;51.402;0.016;2022-10-16T08:47:20;15.20;99.90
44579;DHT22;37422;51.402;0.016;2022-10-16T08:49:59;15.80;99.90
44579;DHT22;37422;51.402;0.016;2022-10-16T08:52:33;16.50;99.90
44579;DHT22;37422;51.402;0.016;2022-10-16T08:55:04;17.20;99.90
44579;DHT22;37422;51.402;0.016;2022-10-16T08:57:32;17.80;99.90
44579;DHT22;37422;51.402;0.016;2022-10-16T09:00:05;18.30;99.90
44579;DHT22;37422;51.402;0.016;2022-10-16T09:03:09;18.70;99.90
44579;DHT22;37422;51.402;0.016;2022-10-16T09:08:38;19.40;97.00
44579;DHT22;37422;51.402;0.016;2022-10-16T09:14:11;19.40;99.40
44579;DHT22;37422;51.402;0.016;2022-10-16T09:17:37;19.10;98.30
44579;DHT22;37422;51.402;0.016;2022-10-16T09:20:32;18.70;97.10
44579;DHT22;37422;51.402;0.016;2022-10-16T09:23:10;18.30;97.40
44579;DHT22;37422;51.402;0.016;2022-10-16T09:25:48;18.10;98.10
44579;DHT22;37422;51.402;0.016;2022-10-16T09:28:18;17.80;98.50
44579;DHT22;37422;51.402;0.016;2022-10-16T09:30:47;17.70;98.40
44579;DHT22;37422;51.402;0.016;2022-10-16T09:33:19;17.60;98.30
44579;DHT22;37422;51.402;0.016;2022-10-16T09:35:53;17.40;98.40
44579;DHT22;37422;51.402;0.016;2022-10-16T09:38:34;17.40;98.30
44579;DHT22;37422;51.402;0.016;2022-10-16T09:41:16;17.30;98.10
44579;DHT22;37422;51.402;0.016;2022-10-16T09:43:56;17.10;98.10
44579;DHT22;37422;51.402;0.016;2022-10-16T09:46:33;17.00;98.30
44579;DHT22;37422;51.402;0.016;2022-10-16T09:51:49;16.70;97.70
44579;DHT22;37422;51.402;0.016;2022-10-16T09:54:19;16.70;98.00
44579;DHT22;37422;51.402;0.016;2022-10-16T09:56:47;16.70;98.10
44579;DHT22;37422;51.402;0.016;2022-10-16T09:59:22;16.70;97.10
44579;DHT22;37422;51.402;0.016;2022-10-16T10:02:01;16.80;98.00
44579;DHT22;37422;51.402;0.016;2022-10-16T10:04:40;16.80;97.60
44579;DHT22;37422;51.402;0.016;2022-10-16T10:07:18;16.80;97.10
44579;DHT22;37422;51.402;0.016;2022-10-16T10:09:46;16.90;97.20
44579;DHT22;37422;51.402;0.016;2022-10-16T10:12:21;17.10;97.20
44579;DHT22;37422;51.402;0.016;2022-10-16T10:14:55;17.40;97.00
44579;DHT22;37422;51.402;0.016;2022-10-16T10:17:27;17.70;97.00
44579;DHT22;37422;51.402;0.016;2022-10-16T10:20:15;18.00;97.30
44579;DHT22;37422;51.402;0.016;2022-10-16T10:22:44;18.60;97.20
44579;DHT22;37422;51.402;0.016;2022-10-16T10:33:35;20.60;94.10
44579;DHT22;37422;51.402;0.016;2022-10-16T10:39:17;20.90;93.70
44579;DHT22;37422;51.402;0.016;2022-10-16T10:42:19;20.70;92.00
44579;DHT22;37422;51.402;0.016;2022-10-16T10:50:38;20.80;92.80
44579;DHT22;37422;51.402;0.016;2022-10-16T10:58:50;21.80;93.30
44579;DHT22;37422;51.402;0.016;2022-10-16T11:01:35;22.40;90.70
44579;DHT22;37422;51.402;0.016;2022-10-16T11:05:08;22.80;91.10
44579;DHT22;37422;51.402;0.016;2022-10-16T11:07:31;23.50;89.10
44579;DHT22;37422;51.402;0.016;2022-10-16T11:10:15;23.90;89.90
44579;DHT22;37422;51.402;0.016;2022-10-16T11:12:52;24.00;88.30
44579;DHT22;37422;51.402;0.016;2022-10-16T11:15:35;24.00;86.10
44579;DHT22;37422;51.402;0.016;2022-10-16T11:18:16;24.00;86.20
44579;DHT22;37422;51.402;0.016;2022-10-16T11:20:51;24.00;86.00
44579;DHT22;37422;51.402;0.016;2022-10-16T11:23:53;23.90;86.80
44579;DHT22;37422;51.402;0.016;2022-10-16T11:26:34;23.80;83.00
44579;DHT22;37422;51.402;0.016;2022-10-16T11:29:04;23.60;84.40
44579;DHT22;37422;51.402;0.016;2022-10-16T11:31:42;23.50;85.20
44579;DHT22;37422;51.402;0.016;2022-10-16T11:34:28;23.40;82.70
44579;DHT22;37422;51.402;0.016;2022-10-16T11:37:32;23.40;85.90
44579;DHT22;37422;51.402;0.016;2022-10-16T11:40:25;23.30;81.70
44579;DHT22;37422;51.402;0.016;2022-10-16T11:43:02;23.10;83.30
44579;DHT22;37422;51.402;0.016;2022-10-16T11:45:39;22.60;84.30
44579;DHT22;37422;51.402;0.016;2022-10-16T11:48:25;22.40;84.60
44579;DHT22;37422;51.402;0.016;2022-10-16T11:51:06;22.10;84.10
44579;DHT22;37422;51.402;0.016;2022-10-16T11:53:42;22.00;84.60
44579;DHT22;37422;51.402;0.016;2022-10-16T11:56:21;22.10;83.00
44579;DHT22;37422;51.402;0.016;2022-10-16T11:58:57;22.30;83.90
44579;DHT22;37422;51.402;0.016;2022-10-16T12:01:56;22.60;84.40
44579;DHT22;37422;51.402;0.016;2022-10-16T12:04:36;23.10;81.20
44579;DHT22;37422;51.402;0.016;2022-10-16T12:07:16;23.50;81.10
44579;DHT22;37422;51.402;0.016;2022-10-16T12:09:45;23.50;82.20
44579;DHT22;37422;51.402;0.016;2022-10-16T12:12:42;23.10;83.00
44579;DHT22;37422;51.402;0.016;2022-10-16T12:15:29;22.50;81.10
44579;DHT22;37422;51.402;0.016;2022-10-16T12:18:24;21.70;83.10
44579;DHT22;37422;51.402;0.016;2022-10-16T12:20:56;21.10;84.80
44579;DHT22;37422;51.402;0.016;2022-10-16T12:23:36;20.70;85.90
44579;DHT22;37422;51.402;0.016;2022-10-16T12:26:05;20.30;86.20
44579;DHT22;37422;51.402;0.016;2022-10-16T12:28:33;19.90;87.50
44579;DHT22;37422;51.402;0.016;2022-10-16T12:31:05;19.70;88.40
44579;DHT22;37422;51.402;0.016;2022-10-16T12:33:39;19.60;89.10
44579;DHT22;37422;51.402;0.016;2022-10-16T12:36:16;19.40;89.60
44579;DHT22;37422;51.402;0.016;2022-10-16T12:38:53;19.20;90.10
44579;DHT22;37422;51.402;0.016;2022-10-16T12:41:30;18.90;90.30
44579;DHT22;37422;51.402;0.016;2022-10-16T12:43:59;18.70;91.00
44579;DHT22;37422;51.402;0.016;2022-10-16T12:51:41;18.30;91.40
44579;DHT22;37422;51.402;0.016;2022-10-16T12:54:39;18.20;91.50
44579;DHT22;37422;51.402;0.016;2022-10-16T13:08:15;17.80;93.10
44579;DHT22;37422;51.402;0.016;2022-10-16T13:22:03;17.80;94.00
44579;DHT22;37422;51.402;0.016;2022-10-16T13:30:01;17.70;94.60
44579;DHT22;37422;51.402;0.016;2022-10-16T13:32:30;17.60;94.50
44579;DHT22;37422;51.402;0.016;2022-10-16T13:34:58;17.60;94.60
44579;DHT22;37422;51.402;0.016;2022-10-16T13:37:28;17.60;94.60
44579;DHT22;37422;51.402;0.016;2022-10-16T13:40:22;17.60;94.70
44579;DHT22;37422;51.402;0.016;2022-10-16T13:42:51;17.60;95.40
44579;DHT22;37422;51.402;0.016;2022-10-16T13:45:22;17.60;95.10
44579;DHT22;37422;51.402;0.016;2022-10-16T13:48:00;17.60;95.20
44579;DHT22;37422;51.402;0.016;2022-10-16T13:50:28;17.70;95.40
44579;DHT22;37422;51.402;0.016;2022-10-16T13:53:15;17.70;95.40
44579;DHT22;37422;51.402;0.016;2022-10-16T13:55:42;17.80;95.50
44579;DHT22;37422;51.402;0.016;2022-10-16T13:58:14;17.80;95.40
44579;DHT22;37422;51.402;0.016;2022-10-16T14:01:02;17.80;95.60
44579;DHT22;37422;51.402;0.016;2022-10-16T14:03:31;17.90;95.80
44579;DHT22;37422;51.402;0.016;2022-10-16T14:06:02;17.90;95.80
44579;DHT22;37422;51.402;0.016;2022-10-16T14:08:31;17.90;95.80
44579;DHT22;37422;51.402;0.016;2022-10-16T14:11:00;18.00;95.90
44579;DHT22;37422;51.402;0.016;2022-10-16T14:13:34;18.00;96.00
44579;DHT22;37422;51.402;0.016;2022-10-16T14:16:15;17.90;96.00
44579;DHT22;37422;51.402;0.016;2022-10-16T14:18:45;17.90;96.20
44579;DHT22;37422;51.402;0.016;2022-10-16T14:21:14;17.80;96.50
44579;DHT22;37422;51.402;0.016;2022-10-16T14:23:43;17.80;96.40
44579;DHT22;37422;51.402;0.016;2022-10-16T14:26:12;17.70;96.50
44579;DHT22;37422;51.402;0.016;2022-10-16T14:28:41;17.70;96.60
44579;DHT22;37422;51.402;0.016;2022-10-16T14:33:46;17.60;96.80
44579;DHT22;37422;51.402;0.016;2022-10-16T14:36:18;17.60;96.80
44579;DHT22;37422;51.402;0.016;2022-10-16T14:39:01;17.60;96.90
44579;DHT22;37422;51.402;0.016;2022-10-16T14:41:32;17.60;97.00
44579;DHT22;37422;51.402;0.016;2022-10-16T14:44:04;17.50;97.20
44579;DHT22;37422;51.402;0.016;2022-10-16T14:46:37;17.50;97.20
44579;DHT22;37422;51.402;0.016;2022-10-16T14:51:41;17.40;97.30
44579;DHT22;37422;51.402;0.016;2022-10-16T14:54:13;17.40;97.50
44579;DHT22;37422;51.402;0.016;2022-10-16T14:56:54;17.40;97.70
44579;DHT22;37422;51.402;0.016;2022-10-16T14:59:31;17.30;97.90
44579;DHT22;37422;51.402;0.016;2022-10-16T15:02:50;17.30;98.10
44579;DHT22;37422;51.402;0.016;2022-10-16T15:05:25;17.30;98.10
44579;DHT22;37422;51.402;0.016;2022-10-16T15:08:03;17.30;98.50
44579;DHT22;37422;51.402;0.016;2022-10-16T15:10:38;17.20;98.30
44579;DHT22;37422;51.402;0.016;2022-10-16T15:13:08;17.20;98.50
44579;DHT22;37422;51.402;0.016;2022-10-16T15:15:39;17.10;98.50
44579;DHT22;37422;51.402;0.016;2022-10-16T15:18:10;17.10;98.70
44579;DHT22;37422;51.402;0.016;2022-10-16T15:20:40;17.00;98.90
44579;DHT22;37422;51.402;0.016;2022-10-16T15:23:19;16.90;98.90
44579;DHT22;37422;51.402;0.016;2022-10-16T15:25:53;16.90;99.10
44579;DHT22;37422;51.402;0.016;2022-10-16T15:28:25;16.80;99.10
44579;DHT22;37422;51.402;0.016;2022-10-16T15:30:55;16.80;99.30
44579;DHT22;37422;51.402;0.016;2022-10-16T15:33:26;16.70;99.90
44579;DHT22;37422;51.402;0.016;2022-10-16T15:36:09;16.70;99.80
44579;DHT22;37422;51.402;0.016;2022-10-16T15:38:40;16.60;99.80
44579;DHT22;37422;51.402;0.016;2022-10-16T15:41:08;16.60;99.90
44579;DHT22;37422;51.402;0.016;2022-10-16T15:43:36;16.60;99.90
44579;DHT22;37422;51.402;0.016;2022-10-16T15:46:06;16.50;99.90
44579;DHT22;37422;51.402;0.016;2022-10-16T15:48:35;16.50;99.90
44579;DHT22;37422;51.402;0.016;2022-10-16T15:51:09;16.40;99.90
44579;DHT22;37422;51.402;0.016;2022-10-16T15:53:37;16.40;99.90
44579;DHT22;37422;51.402;0.016;2022-10-16T15:56:05;16.40;99.90
44579;DHT22;37422;51.402;0.016;2022-10-16T15:58:34;16.40;99.90
44579;DHT22;37422;51.402;0.016;2022-10-16T16:01:02;16.30;99.90
44579;DHT22;37422;51.402;0.016;2022-10-16T16:03:31;16.30;99.90
44579;DHT22;37422;51.402;0.016;2022-10-16T16:06:04;16.30;99.90
44579;DHT22;37422;51.402;0.016;2022-10-16T16:08:39;16.30;99.90
44579;DHT22;37422;51.402;0.016;2022-10-16T16:11:09;16.20;99.90
44579;DHT22;37422;51.402;0.016;2022-10-16T16:13:37;16.20;99.90
44579;DHT22;37422;51.402;0.016;2022-10-16T16:16:11;16.20;99.90
44579;DHT22;37422;51.402;0.016;2022-10-16T16:18:42;16.20;99.90
44579;DHT22;37422;51.402;0.016;2022-10-16T16:21:13;16.10;99.90
44579;DHT22;37422;51.402;0.016;2022-10-16T16:23:40;16.10;99.90
44579;DHT22;37422;51.402;0.016;2022-10-16T16:26:13;16.00;99.90
44579;DHT22;37422;51.402;0.016;2022-10-16T16:28:45;16.00;99.90
44579;DHT22;37422;51.402;0.016;2022-10-16T16:31:13;16.00;99.90
44579;DHT22;37422;51.402;0.016;2022-10-16T16:33:41;15.90;99.90
44579;DHT22;37422;51.402;0.016;2022-10-16T16:36:09;15.90;99.90
44579;DHT22;37422;51.402;0.016;2022-10-16T16:38:45;15.90;99.90
44579;DHT22;37422;51.402;0.016;2022-10-16T16:41:19;15.90;99.90
44579;DHT22;37422;51.402;0.016;2022-10-16T16:43:49;15.90;99.90
44579;DHT22;37422;51.402;0.016;2022-10-16T16:46:21;15.90;99.90
44579;DHT22;37422;51.402;0.016;2022-10-16T16:48:51;15.90;99.90
44579;DHT22;37422;51.402;0.016;2022-10-16T16:51:25;15.90;99.90
44579;DHT22;37422;51.402;0.016;2022-10-16T16:53:59;15.80;99.90
44579;DHT22;37422;51.402;0.016;2022-10-16T16:56:27;15.80;99.90
44579;DHT22;37422;51.402;0.016;2022-10-16T16:58:56;15.80;99.90
44579;DHT22;37422;51.402;0.016;2022-10-16T17:01:26;15.70;99.90
44579;DHT22;37422;51.402;0.016;2022-10-16T17:03:56;15.70;99.90
44579;DHT22;37422;51.402;0.016;2022-10-16T17:06:26;15.70;99.90
44579;DHT22;37422;51.402;0.016;2022-10-16T17:08:54;15.70;99.90
44579;DHT22;37422;51.402;0.016;2022-10-16T17:11:25;15.60;99.90
44579;DHT22;37422;51.402;0.016;2022-10-16T17:13:55;15.60;99.90
44579;DHT22;37422;51.402;0.016;2022-10-16T17:16:33;15.60;99.90
44579;DHT22;37422;51.402;0.016;2022-10-16T17:19:09;15.60;99.90
44579;DHT22;37422;51.402;0.016;2022-10-16T17:21:37;15.60;99.90
44579;DHT22;37422;51.402;0.016;2022-10-16T17:24:05;15.60;99.90
44579;DHT22;37422;51.402;0.016;2022-10-16T17:26:34;15.50;99.90
44579;DHT22;37422;51.402;0.016;2022-10-16T17:29:04;15.50;99.90
44579;DHT22;37422;51.402;0.016;2022-10-16T17:31:34;15.50;99.90
44579;DHT22;37422;51.402;0.016;2022-10-16T17:34:06;15.40;99.90
44579;DHT22;37422;51.402;0.016;2022-10-16T17:36:36;15.30;99.90
44579;DHT22;37422;51.402;0.016;2022-10-16T17:39:06;15.30;99.90
44579;DHT22;37422;51.402;0.016;2022-10-16T17:41:35;15.30;99.90
44579;DHT22;37422;51.402;0.016;2022-10-16T17:44:04;15.20;99.90
44579;DHT22;37422;51.402;0.016;2022-10-16T17:46:32;15.20;99.90
44579;DHT22;37422;51.402;0.016;2022-10-16T17:49:06;15.20;99.90
44579;DHT22;37422;51.402;0.016;2022-10-16T17:51:36;15.20;99.90
44579;DHT22;37422;51.402;0.016;2022-10-16T17:54:04;15.20;99.90
44579;DHT22;37422;51.402;0.016;2022-10-16T17:56:32;15.20;99.90
44579;DHT22;37422;51.402;0.016;2022-10-16T17:59:00;15.10;99.90
44579;DHT22;37422;51.402;0.016;2022-10-16T18:01:39;15.20;99.90
44579;DHT22;37422;51.402;0.016;2022-10-16T18:04:10;15.20;99.90
44579;DHT22;37422;51.402;0.016;2022-10-16T18:06:40;15.20;99.90
44579;DHT22;37422;51.402;0.016;2022-10-16T18:09:12;15.20;99.90
44579;DHT22;37422;51.402;0.016;2022-10-16T18:11:41;15.10;99.90
44579;DHT22;37422;51.402;0.016;2022-10-16T18:14:12;15.10;99.90
44579;DHT22;37422;51.402;0.016;2022-10-16T18:16:40;15.10;99.90
44579;DHT22;37422;51.402;0.016;2022-10-16T18:19:11;15.10;99.90
44579;DHT22;37422;51.402;0.016;2022-10-16T18:21:42;15.00;99.90